Time,TemperatureF,DewpointF,PressureIn,WindDirection,WindDirectionDegrees,WindSpeedMPH,WindSpeedGustMPH,Humidity,HourlyPrecipIn,Conditions,Clouds,dailyrainin,SoftwareType,DateUTC
2013-07-02 00:01:00,67.2,63.5,31.98,North,355,4.0,7.0,88,0.00,,---,0.02,VWS V14.00,2013-07-02 04:01:00,
2013-07-02 00:02:00,67.2,63.5,31.98,North,355,3.0,7.0,88,0.00,,---,0.02,VWS V14.00,2013-07-02 04:02:00,
2013-07-02 00:05:00,67.3,63.6,31.98,North,360,3.0,7.0,88,0.00,,---,0.02,VWS V14.00,2013-07-02 04:05:00,
2013-07-02 00:10:00,67.4,63.7,31.98,North,5,5.0,5.0,88,0.00,,---,0.00,VWS V14.00,2013-07-02 04:10:00,
2013-07-02 00:15:00,67.5,63.8,31.98,NNE,21,7.0,9.0,88,0.00,,---,0.00,VWS V14.00,2013-07-02 04:15:00,
2013-07-02 00:20:00,67.7,64.0,31.98,NNE,21,4.0,9.0,88,0.00,,---,0.00,VWS V14.00,2013-07-02 04:20:00,
2013-07-02 00:25:00,67.8,64.1,31.98,North,360,6.0,10.0,88,0.00,,---,0.00,VWS V14.00,2013-07-02 04:25:00,
2013-07-02 00:30:00,67.8,64.1,31.98,NNE,16,6.0,10.0,88,0.00,,---,0.00,VWS V14.00,2013-07-02 04:30:00,
2013-07-02 00:35:00,67.8,64.1,31.98,NNE,17,5.0,10.0,88,0.00,,---,0.00,VWS V14.00,2013-07-02 04:35:00,
2013-07-02 00:40:00,67.8,64.1,31.98,NW,325,3.0,6.0,88,0.00,,---,0.00,VWS V14.00,2013-07-02 04:40:00,
2013-07-02 00:45:00,67.7,64.0,31.98,NNW,339,5.0,7.0,88,0.00,,---,0.00,VWS V14.00,2013-07-02 04:45:00,
2013-07-02 00:51:00,67.5,63.8,31.98,NNW,342,4.0,7.0,88,0.00,,---,0.00,VWS V14.00,2013-07-02 04:51:00,
2013-07-02 00:56:00,67.4,63.7,31.98,NNE,18,2.0,7.0,88,0.00,,---,0.00,VWS V14.00,2013-07-02 04:56:00,
2013-07-02 01:01:00,67.4,63.7,31.98,NW,319,4.0,7.0,88,0.00,,---,0.00,VWS V14.00,2013-07-02 05:01:00,
2013-07-02 01:06:00,67.3,63.6,31.98,NW,325,5.0,10.0,88,0.00,,---,0.00,VWS V14.00,2013-07-02 05:06:00,
2013-07-02 01:11:00,67.3,63.6,31.98,North,355,6.0,13.0,88,0.00,,---,0.00,VWS V14.00,2013-07-02 05:11:00,
2013-07-02 01:16:00,67.2,63.5,31.98,North,10,5.0,13.0,88,0.00,,---,0.00,VWS V14.00,2013-07-02 05:16:00,
2013-07-02 01:21:00,67.2,63.5,31.98,North,355,7.0,13.0,88,0.00,,---,0.00,VWS V14.00,2013-07-02 05:21:00,
2013-07-02 01:26:00,67.0,63.3,31.98,NNW,332,5.0,13.0,88,0.00,,---,0.00,VWS V14.00,2013-07-02 05:26:00,
2013-07-02 01:31:00,67.1,63.4,31.98,North,11,5.0,13.0,88,0.00,,---,0.00,VWS V14.00,2013-07-02 05:31:00,
2013-07-02 01:36:00,67.0,63.3,31.98,North,355,10.0,13.0,88,0.00,,---,0.00,VWS V14.00,2013-07-02 05:36:00,
2013-07-02 01:41:00,67.0,63.3,31.98,NNW,338,7.0,12.0,88,0.00,,---,0.00,VWS V14.00,2013-07-02 05:41:00,
2013-07-02 01:46:00,66.9,63.2,31.98,North,360,10.0,13.0,88,0.00,,---,0.00,VWS V14.00,2013-07-02 05:46:00,
2013-07-02 01:52:00,66.9,63.2,31.98,North,360,11.0,13.0,88,0.00,,---,0.00,VWS V14.00,2013-07-02 05:52:00,
2013-07-02 01:57:00,66.9,62.9,31.98,NNW,327,5.0,13.0,87,0.00,,---,0.00,VWS V14.00,2013-07-02 05:57:00,
2013-07-02 02:02:00,66.9,62.9,31.98,North,360,6.0,13.0,87,0.00,,---,0.00,VWS V14.00,2013-07-02 06:02:00,
2013-07-02 02:07:00,66.9,62.9,31.98,North,351,5.0,6.0,87,0.00,,---,0.00,VWS V14.00,2013-07-02 06:07:00,
2013-07-02 02:12:00,67.0,63.0,31.98,North,5,7.0,14.0,87,0.00,,---,0.00,VWS V14.00,2013-07-02 06:12:00,
2013-07-02 02:17:00,67.1,63.1,31.98,North,5,7.0,16.0,87,0.00,,---,0.00,VWS V14.00,2013-07-02 06:17:00,
2013-07-02 02:22:00,67.2,63.2,31.98,NNE,27,10.0,16.0,87,0.00,,---,0.00,VWS V14.00,2013-07-02 06:22:00,
2013-07-02 02:27:00,67.2,63.2,31.98,NW,323,4.0,16.0,87,0.00,,---,0.00,VWS V14.00,2013-07-02 06:27:00,
2013-07-02 02:32:00,67.2,63.2,31.98,North,11,7.0,16.0,87,0.00,,---,0.00,VWS V14.00,2013-07-02 06:32:00,
2013-07-02 02:37:00,67.0,63.0,31.98,NNE,25,5.0,6.0,87,0.00,,---,0.00,VWS V14.00,2013-07-02 06:37:00,
2013-07-02 02:42:00,66.9,62.9,31.98,North,5,3.0,7.0,87,0.00,,---,0.00,VWS V14.00,2013-07-02 06:42:00,
2013-07-02 02:47:00,66.7,62.7,31.98,NNW,339,4.0,8.0,87,0.00,,---,0.00,VWS V14.00,2013-07-02 06:47:00,
2013-07-02 02:52:00,66.5,62.5,31.98,NW,308,5.0,8.0,87,0.00,,---,0.00,VWS V14.00,2013-07-02 06:52:00,
2013-07-02 02:57:00,66.3,62.3,31.98,NNW,338,2.0,8.0,87,0.00,,---,0.00,VWS V14.00,2013-07-02 06:57:00,
2013-07-02 03:03:00,66.3,62.6,31.98,North,360,3.0,8.0,88,0.00,,---,0.00,VWS V14.00,2013-07-02 07:03:00,
2013-07-02 03:08:00,66.3,62.6,31.98,NNW,338,3.0,3.0,88,0.00,,---,0.00,VWS V14.00,2013-07-02 07:08:00,
2013-07-02 03:13:00,66.3,62.6,31.98,North,349,5.0,7.0,88,0.00,,---,0.00,VWS V14.00,2013-07-02 07:13:00,
2013-07-02 03:18:00,66.3,62.6,31.98,NE,41,4.0,9.0,88,0.00,,---,0.00,VWS V14.00,2013-07-02 07:18:00,
2013-07-02 03:23:00,66.4,62.7,31.98,NNE,21,7.0,11.0,88,0.00,,---,0.00,VWS V14.00,2013-07-02 07:23:00,
2013-07-02 03:28:00,66.3,62.6,31.98,North,5,5.0,11.0,88,0.00,,---,0.00,VWS V14.00,2013-07-02 07:28:00,
2013-07-02 03:33:00,66.4,62.7,31.98,North,360,4.0,11.0,88,0.00,,---,0.00,VWS V14.00,2013-07-02 07:33:00,
2013-07-02 03:38:00,66.4,62.7,31.98,NNW,338,4.0,7.0,88,0.00,,---,0.00,VWS V14.00,2013-07-02 07:38:00,
2013-07-02 03:43:00,66.3,62.6,31.98,NE,39,6.0,9.0,88,0.00,,---,0.00,VWS V14.00,2013-07-02 07:43:00,
2013-07-02 03:48:00,66.3,62.6,31.98,North,5,4.0,10.0,88,0.00,,---,0.00,VWS V14.00,2013-07-02 07:48:00,
2013-07-02 03:53:00,66.2,62.5,31.98,NNW,345,4.0,10.0,88,0.00,,---,0.00,VWS V14.00,2013-07-02 07:53:00,
2013-07-02 03:58:00,66.2,62.5,31.98,North,5,6.0,10.0,88,0.00,,---,0.00,VWS V14.00,2013-07-02 07:58:00,
2013-07-02 04:03:00,66.2,62.5,31.98,North,350,3.0,10.0,88,0.00,,---,0.00,VWS V14.00,2013-07-02 08:03:00,
2013-07-02 04:08:00,66.1,62.5,31.98,NNW,342,4.0,7.0,88,0.00,,---,0.00,VWS V14.00,2013-07-02 08:08:00,
2013-07-02 04:13:00,66.2,62.5,31.98,NNW,336,6.0,9.0,88,0.00,,---,0.00,VWS V14.00,2013-07-02 08:13:00,
2013-07-02 04:18:00,66.1,62.5,31.98,NNE,24,7.0,9.0,88,0.00,,---,0.00,VWS V14.00,2013-07-02 08:18:00,
2013-07-02 04:23:00,66.1,62.5,31.98,North,350,5.0,12.0,88,0.00,,---,0.00,VWS V14.00,2013-07-02 08:23:00,
2013-07-02 04:29:00,66.2,62.5,31.98,North,355,6.0,12.0,88,0.00,,---,0.00,VWS V14.00,2013-07-02 08:29:00,
2013-07-02 04:34:00,66.3,62.6,31.98,North,360,7.0,12.0,88,0.00,,---,0.00,VWS V14.00,2013-07-02 08:34:00,
2013-07-02 04:39:00,66.3,62.6,31.98,NNE,12,4.0,7.0,88,0.00,,---,0.00,VWS V14.00,2013-07-02 08:39:00,
2013-07-02 04:44:00,66.5,63.2,31.98,NE,35,5.0,11.0,89,0.00,,---,0.00,VWS V14.00,2013-07-02 08:44:00,
2013-07-02 04:49:00,66.6,63.3,31.98,NNE,33,5.0,11.0,89,0.00,,---,0.00,VWS V14.00,2013-07-02 08:49:00,
2013-07-02 04:54:00,66.5,62.8,31.98,North,360,5.0,11.0,88,0.00,,---,0.00,VWS V14.00,2013-07-02 08:54:00,
2013-07-02 04:59:00,66.3,62.6,31.98,North,9,9.0,11.0,88,0.00,,---,0.00,VWS V14.00,2013-07-02 08:59:00,
2013-07-02 05:04:00,66.3,62.6,31.98,North,5,4.0,11.0,88,0.00,,---,0.00,VWS V14.00,2013-07-02 09:04:00,
2013-07-02 05:09:00,66.2,62.5,31.98,North,355,5.0,7.0,88,0.00,,---,0.00,VWS V14.00,2013-07-02 09:09:00,
2013-07-02 05:14:00,66.3,62.6,31.98,NNE,21,4.0,7.0,88,0.00,,---,0.00,VWS V14.00,2013-07-02 09:14:00,
2013-07-02 05:19:00,66.2,62.5,31.98,North,9,4.0,10.0,88,0.00,,---,0.00,VWS V14.00,2013-07-02 09:19:00,
2013-07-02 05:24:00,66.1,62.5,31.98,NNE,20,6.0,10.0,88,0.00,,---,0.00,VWS V14.00,2013-07-02 09:24:00,
2013-07-02 05:29:00,66.2,62.9,31.98,North,360,4.0,10.0,89,0.00,,---,0.00,VWS V14.00,2013-07-02 09:29:00,
2013-07-02 05:34:00,66.1,62.8,31.98,North,355,3.0,10.0,89,0.00,,---,0.00,VWS V14.00,2013-07-02 09:34:00,
2013-07-02 05:39:00,66.1,62.5,31.98,NW,318,5.0,9.0,88,0.00,,---,0.00,VWS V14.00,2013-07-02 09:39:00,
2013-07-02 05:44:00,66.0,62.7,31.98,NNE,17,6.0,10.0,89,0.00,,---,0.00,VWS V14.00,2013-07-02 09:44:00,
2013-07-02 05:49:00,66.0,62.7,31.98,NNE,19,6.0,10.0,89,0.00,,---,0.00,VWS V14.00,2013-07-02 09:49:00,
2013-07-02 05:55:00,66.0,62.7,31.98,North,11,5.0,10.0,89,0.00,,---,0.00,VWS V14.00,2013-07-02 09:55:00,
2013-07-02 06:00:00,66.0,62.7,31.98,NNW,331,5.0,10.0,89,0.00,,---,0.00,VWS V14.00,2013-07-02 10:00:00,
2013-07-02 06:05:00,65.9,62.2,31.98,NNE,26,4.0,11.0,88,0.00,,---,0.00,VWS V14.00,2013-07-02 10:05:00,
2013-07-02 06:10:00,66.0,62.7,31.98,North,350,4.0,5.0,89,0.00,,---,0.00,VWS V14.00,2013-07-02 10:10:00,
2013-07-02 06:15:00,65.9,62.6,31.98,North,5,5.0,8.0,89,0.00,,---,0.00,VWS V14.00,2013-07-02 10:15:00,
2013-07-02 06:20:00,66.2,62.9,31.98,NNE,12,7.0,10.0,89,0.00,,---,0.00,VWS V14.00,2013-07-02 10:20:00,
2013-07-02 06:25:00,66.0,62.7,31.98,North,360,2.0,10.0,89,0.00,,---,0.00,VWS V14.00,2013-07-02 10:25:00,
2013-07-02 06:30:00,66.1,62.8,31.98,NNE,30,5.0,10.0,89,0.00,,---,0.00,VWS V14.00,2013-07-02 10:30:00,
2013-07-02 06:35:00,66.1,62.8,31.98,North,355,6.0,10.0,89,0.00,,---,0.00,VWS V14.00,2013-07-02 10:35:00,
2013-07-02 06:40:00,66.0,62.7,31.98,North,350,5.0,6.0,89,0.00,,---,0.00,VWS V14.00,2013-07-02 10:40:00,
2013-07-02 06:45:00,66.0,62.7,31.98,North,360,5.0,7.0,89,0.00,,---,0.00,VWS V14.00,2013-07-02 10:45:00,
2013-07-02 06:50:00,66.1,62.8,31.98,North,355,3.0,7.0,89,0.00,,---,0.00,VWS V14.00,2013-07-02 10:50:00,
2013-07-02 06:55:00,66.1,62.8,31.98,NNE,15,4.0,7.0,89,0.00,,---,0.00,VWS V14.00,2013-07-02 10:55:00,
2013-07-02 07:00:00,66.1,62.8,31.98,North,5,6.0,11.0,89,0.00,,---,0.00,VWS V14.00,2013-07-02 11:00:00,
2013-07-02 07:05:00,66.1,62.8,31.98,North,9,6.0,11.0,89,0.00,,---,0.00,VWS V14.00,2013-07-02 11:05:00,
2013-07-02 07:11:00,66.1,62.8,31.98,NNE,33,5.0,9.0,89,0.00,,---,0.00,VWS V14.00,2013-07-02 11:11:00,
2013-07-02 07:16:00,66.1,62.8,31.98,North,355,5.0,9.0,89,0.00,,---,0.00,VWS V14.00,2013-07-02 11:16:00,
2013-07-02 07:21:00,66.1,62.8,31.98,NNE,21,7.0,9.0,89,0.00,,---,0.00,VWS V14.00,2013-07-02 11:21:00,
2013-07-02 07:26:00,66.2,62.9,31.98,North,5,8.0,9.0,89,0.00,,---,0.00,VWS V14.00,2013-07-02 11:26:00,
2013-07-02 07:31:00,66.1,62.8,31.98,NNE,13,6.0,10.0,89,0.00,,---,0.00,VWS V14.00,2013-07-02 11:31:00,
2013-07-02 07:36:00,66.1,62.8,31.98,NNE,28,6.0,10.0,89,0.00,,---,0.00,VWS V14.00,2013-07-02 11:36:00,
2013-07-02 07:41:00,66.1,62.8,31.98,NNE,26,5.0,10.0,89,0.00,,---,0.00,VWS V14.00,2013-07-02 11:41:00,
2013-07-02 07:46:00,66.2,62.9,31.98,North,360,8.0,10.0,89,0.00,,---,0.00,VWS V14.00,2013-07-02 11:46:00,
2013-07-02 07:51:00,66.2,62.9,31.98,North,350,5.0,10.0,89,0.00,,---,0.00,VWS V14.00,2013-07-02 11:51:00,
2013-07-02 07:56:00,66.5,63.2,31.98,NE,38,5.0,10.0,89,0.00,,---,0.00,VWS V14.00,2013-07-02 11:56:00,
2013-07-02 08:01:00,66.4,63.1,31.98,NE,41,8.0,12.0,89,0.00,,---,0.00,VWS V14.00,2013-07-02 12:01:00,
2013-07-02 08:06:00,66.3,62.6,31.98,NE,34,6.0,12.0,88,0.00,,---,0.00,VWS V14.00,2013-07-02 12:06:00,
2013-07-02 08:11:00,66.3,62.6,31.98,NNE,17,7.0,11.0,88,0.00,,---,0.00,VWS V14.00,2013-07-02 12:11:00,
2013-07-02 08:16:00,66.5,62.8,31.98,NNE,28,5.0,11.0,88,0.00,,---,0.00,VWS V14.00,2013-07-02 12:16:00,
2013-07-02 08:22:00,66.5,62.8,31.98,NNE,17,5.0,11.0,88,0.00,,---,0.00,VWS V14.00,2013-07-02 12:22:00,
2013-07-02 08:27:00,66.5,62.8,31.98,NNE,17,7.0,11.0,88,0.00,,---,0.00,VWS V14.00,2013-07-02 12:27:00,
2013-07-02 08:32:00,66.5,62.8,31.98,North,5,6.0,11.0,88,0.00,,---,0.00,VWS V14.00,2013-07-02 12:32:00,
2013-07-02 08:37:00,66.5,62.8,31.98,NNE,32,4.0,11.0,88,0.00,,---,0.00,VWS V14.00,2013-07-02 12:37:00,
2013-07-02 08:42:00,66.5,62.8,31.98,NNE,32,5.0,7.0,88,0.00,,---,0.00,VWS V14.00,2013-07-02 12:42:00,
2013-07-02 08:47:00,66.7,63.4,31.98,NNE,25,2.0,7.0,89,0.00,,---,0.00,VWS V14.00,2013-07-02 12:47:00,
2013-07-02 08:52:00,66.8,63.1,31.98,North,360,3.0,7.0,88,0.00,,---,0.00,VWS V14.00,2013-07-02 12:52:00,
2013-07-02 08:57:00,66.8,63.1,31.98,NNE,28,5.0,7.0,88,0.00,,---,0.00,VWS V14.00,2013-07-02 12:57:00,
2013-07-02 09:02:00,66.8,63.1,31.98,NNE,21,2.0,7.0,88,0.00,,---,0.00,VWS V14.00,2013-07-02 13:02:00,
2013-07-02 09:07:00,66.9,63.2,31.98,NNE,18,4.0,4.0,88,0.00,,---,0.00,VWS V14.00,2013-07-02 13:07:00,
2013-07-02 09:12:00,67.0,63.3,31.98,NNE,22,3.0,5.0,88,0.00,,---,0.00,VWS V14.00,2013-07-02 13:12:00,
2013-07-02 09:17:00,67.1,63.4,31.98,NNE,32,4.0,5.0,88,0.00,,---,0.00,VWS V14.00,2013-07-02 13:17:00,
2013-07-02 09:22:00,67.3,63.6,31.98,ENE,59,6.0,9.0,88,0.00,,---,0.00,VWS V14.00,2013-07-02 13:22:00,
2013-07-02 09:28:00,67.6,63.9,31.98,ENE,64,4.0,9.0,88,0.00,,---,0.00,VWS V14.00,2013-07-02 13:28:00,
2013-07-02 09:33:00,67.7,63.7,31.98,ENE,71,4.0,9.0,87,0.00,,---,0.00,VWS V14.00,2013-07-02 13:33:00,
2013-07-02 09:38:00,67.9,64.2,31.98,ENE,57,6.0,6.0,88,0.00,,---,0.00,VWS V14.00,2013-07-02 13:38:00,
2013-07-02 09:43:00,67.9,63.9,31.98,ENE,66,4.0,9.0,87,0.00,,---,0.00,VWS V14.00,2013-07-02 13:43:00,
2013-07-02 09:48:00,68.0,64.0,31.98,ENE,63,3.0,9.0,87,0.00,,---,0.00,VWS V14.00,2013-07-02 13:48:00,
2013-07-02 09:53:00,68.1,64.1,31.98,ENE,59,4.0,9.0,87,0.00,,---,0.00,VWS V14.00,2013-07-02 13:53:00,
2013-07-02 09:58:00,68.2,63.9,31.98,ENE,59,6.0,9.0,86,0.00,,---,0.00,VWS V14.00,2013-07-02 13:58:00,
2013-07-02 10:03:00,68.3,64.0,31.98,ENE,73,7.0,9.0,86,0.00,,---,0.00,VWS V14.00,2013-07-02 14:03:00,
2013-07-02 10:08:00,68.3,64.0,31.98,ENE,61,6.0,7.0,86,0.00,,---,0.00,VWS V14.00,2013-07-02 14:08:00,
2013-07-02 10:13:00,68.3,64.0,31.98,NE,48,4.0,7.0,86,0.00,,---,0.00,VWS V14.00,2013-07-02 14:13:00,
2013-07-02 10:18:00,68.4,64.1,31.98,NE,53,3.0,8.0,86,0.00,,---,0.00,VWS V14.00,2013-07-02 14:18:00,
2013-07-02 10:23:00,68.6,64.2,31.98,NE,45,4.0,8.0,86,0.00,,---,0.00,VWS V14.00,2013-07-02 14:23:00,
2013-07-02 10:29:00,68.8,64.4,31.98,NE,51,6.0,9.0,86,0.00,,---,0.00,VWS V14.00,2013-07-02 14:29:00,
2013-07-02 10:34:00,69.0,64.3,31.98,NE,56,5.0,9.0,85,0.00,,---,0.00,VWS V14.00,2013-07-02 14:34:00,
2013-07-02 10:39:00,69.1,64.4,31.98,NE,56,0.0,4.0,85,0.00,,---,0.00,VWS V14.00,2013-07-02 14:39:00,
2013-07-02 10:44:00,69.2,64.5,31.98,ENE,60,4.0,7.0,85,0.00,,---,0.00,VWS V14.00,2013-07-02 14:44:00,
2013-07-02 12:50:00,72.6,65.7,29.44,NE,42,0.0,4.0,79,0.00,,---,0.01,VWS V14.00,2013-07-02 16:50:00,
2013-07-02 12:55:00,72.7,65.8,29.44,NE,42,0.0,4.0,79,0.00,,---,0.01,VWS V14.00,2013-07-02 16:55:00,
2013-07-02 13:00:00,72.9,66.0,29.44,NE,42,3.0,4.0,79,0.00,,---,0.01,VWS V14.00,2013-07-02 17:00:00,
2013-07-02 13:06:00,72.9,65.7,29.44,SE,129,7.0,11.0,78,0.00,,---,0.01,VWS V14.00,2013-07-02 17:06:00,
2013-07-02 13:11:00,73.1,66.2,29.44,SSE,153,11.0,13.0,79,0.00,,---,0.01,VWS V14.00,2013-07-02 17:11:00,
2013-07-02 13:16:00,73.1,65.8,29.44,SSE,150,7.0,13.0,78,0.00,,---,0.01,VWS V14.00,2013-07-02 17:16:00,
2013-07-02 13:21:00,73.3,66.0,29.44,SSE,161,9.0,14.0,78,0.00,,---,0.01,VWS V14.00,2013-07-02 17:21:00,
2013-07-02 13:26:00,73.3,66.0,29.44,SSE,153,12.0,16.0,78,0.00,,---,0.01,VWS V14.00,2013-07-02 17:26:00,
2013-07-02 13:31:00,73.2,66.3,29.44,SSE,159,12.0,16.0,79,0.00,,---,0.01,VWS V14.00,2013-07-02 17:31:00,
2013-07-02 13:36:00,73.1,65.5,29.44,SSE,150,9.0,16.0,77,0.00,,---,0.01,VWS V14.00,2013-07-02 17:36:00,
2013-07-02 13:41:00,73.3,64.5,29.44,SSE,152,11.0,17.0,74,0.00,,---,0.01,VWS V14.00,2013-07-02 17:41:00,
2013-07-02 13:46:00,73.5,65.5,29.44,SSE,160,10.0,17.0,76,0.00,,---,0.01,VWS V14.00,2013-07-02 17:46:00,
2013-07-02 13:51:00,73.9,65.5,29.44,SSE,167,10.0,17.0,75,0.00,,---,0.01,VWS V14.00,2013-07-02 17:51:00,
2013-07-02 13:56:00,74.1,65.3,29.44,South,169,10.0,17.0,74,0.00,,---,0.01,VWS V14.00,2013-07-02 17:56:00,
2013-07-02 14:01:00,74.2,65.4,29.44,SSE,155,11.0,17.0,74,0.00,,---,0.01,VWS V14.00,2013-07-02 18:01:00,
2013-07-02 14:07:00,74.4,64.8,29.44,SSE,153,16.0,17.0,72,0.00,,---,0.01,VWS V14.00,2013-07-02 18:07:00,
2013-07-02 14:12:00,74.0,63.6,29.44,SSE,158,11.0,18.0,70,0.00,,---,0.01,VWS V14.00,2013-07-02 18:12:00,
2013-07-02 14:17:00,74.1,64.1,29.44,SSE,168,8.0,18.0,71,0.00,,---,0.01,VWS V14.00,2013-07-02 18:17:00,
2013-07-02 14:22:00,74.2,64.2,29.44,SSE,167,10.0,18.0,71,0.00,,---,0.01,VWS V14.00,2013-07-02 18:22:00,
2013-07-02 14:27:00,74.4,64.4,29.44,SSE,148,9.0,18.0,71,0.00,,---,0.01,VWS V14.00,2013-07-02 18:27:00,
2013-07-02 14:32:00,74.6,64.2,29.44,SSE,161,11.0,18.0,70,0.00,,---,0.01,VWS V14.00,2013-07-02 18:32:00,
2013-07-02 14:37:00,74.6,63.8,29.44,South,176,7.0,9.0,69,0.00,,---,0.01,VWS V14.00,2013-07-02 18:37:00,
2013-07-02 14:42:00,74.8,64.0,29.44,South,170,8.0,14.0,69,0.00,,---,0.01,VWS V14.00,2013-07-02 18:42:00,
2013-07-02 14:47:00,74.9,64.1,29.44,SSE,150,9.0,14.0,69,0.00,,---,0.01,VWS V14.00,2013-07-02 18:47:00,
2013-07-02 14:52:00,74.9,64.1,29.44,SE,136,3.0,14.0,69,0.00,,---,0.01,VWS V14.00,2013-07-02 18:52:00,
2013-07-02 14:57:00,75.0,64.2,29.44,SE,139,7.0,14.0,69,0.00,,---,0.01,VWS V14.00,2013-07-02 18:57:00,
2013-07-02 15:02:00,75.2,63.9,29.44,SSE,157,6.0,14.0,68,0.00,,---,0.01,VWS V14.00,2013-07-02 19:02:00,
2013-07-02 15:07:00,75.4,64.1,29.44,SSE,155,5.0,7.0,68,0.00,,---,0.01,VWS V14.00,2013-07-02 19:07:00,
2013-07-02 15:12:00,75.6,63.9,29.44,SSE,159,7.0,11.0,67,0.00,,---,0.01,VWS V14.00,2013-07-02 19:12:00,
2013-07-02 15:18:00,75.6,64.3,32.45,SSE,151,5.0,11.0,68,0.00,,---,0.01,VWS V14.00,2013-07-02 19:18:00,
2013-07-02 15:23:00,75.7,64.4,32.45,SE,140,6.0,11.0,68,0.00,,---,0.01,VWS V14.00,2013-07-02 19:23:00,
2013-07-02 15:28:00,75.7,64.4,32.45,SSE,150,6.0,11.0,68,0.00,,---,0.01,VWS V14.00,2013-07-02 19:28:00,
2013-07-02 15:33:00,75.7,65.6,32.45,SSE,150,4.0,11.0,71,0.00,,---,0.01,VWS V14.00,2013-07-02 19:33:00,
2013-07-02 15:38:00,75.8,64.9,32.45,SSE,150,3.0,3.0,69,0.00,,---,0.01,VWS V14.00,2013-07-02 19:38:00,
2013-07-02 15:43:00,75.8,64.5,32.45,SSE,150,2.0,6.0,68,0.00,,---,0.01,VWS V14.00,2013-07-02 19:43:00,
2013-07-02 15:48:00,76.0,64.7,32.45,SSE,150,2.0,6.0,68,0.00,,---,0.01,VWS V14.00,2013-07-02 19:48:00,
2013-07-02 15:53:00,76.2,65.7,32.45,SSE,150,3.0,6.0,70,0.00,,---,0.01,VWS V14.00,2013-07-02 19:53:00,
2013-07-02 15:58:00,76.3,65.4,32.45,SSE,150,5.0,6.0,69,0.00,,---,0.01,VWS V14.00,2013-07-02 19:58:00,
2013-07-02 16:03:00,76.4,65.5,32.45,SSE,156,5.0,7.0,69,0.00,,---,0.01,VWS V14.00,2013-07-02 20:03:00,
2013-07-02 16:08:00,76.6,65.7,32.45,SSE,166,11.0,12.0,69,0.00,,---,0.01,VWS V14.00,2013-07-02 20:08:00,
2013-07-02 16:13:00,76.7,64.9,32.45,SSE,153,10.0,12.0,67,0.00,,---,0.01,VWS V14.00,2013-07-02 20:13:00,
2013-07-02 16:18:00,76.7,65.3,32.45,SSE,149,6.0,12.0,68,0.00,,---,0.01,VWS V14.00,2013-07-02 20:18:00,
2013-07-02 16:23:00,76.8,66.3,32.45,South,178,3.0,12.0,70,0.00,,---,0.01,VWS V14.00,2013-07-02 20:23:00,
2013-07-02 16:29:00,76.9,66.0,32.45,South,182,3.0,12.0,69,0.00,,---,0.01,VWS V14.00,2013-07-02 20:29:00,
2013-07-02 16:34:00,76.9,66.0,32.45,SSE,167,6.0,12.0,69,0.00,,---,0.01,VWS V14.00,2013-07-02 20:34:00,
2013-07-02 16:39:00,76.8,65.9,32.45,SE,130,4.0,6.0,69,0.00,,---,0.01,VWS V14.00,2013-07-02 20:39:00,
2013-07-02 16:44:00,76.8,66.7,32.45,SE,142,3.0,7.0,71,0.00,,---,0.01,VWS V14.00,2013-07-02 20:44:00,